createdAt,value
2019-03-15T00:00:39.417Z,6.61
2019-03-15T00:01:44.743Z,6.62
2019-03-15T00:02:50.366Z,6.52
2019-03-15T00:03:55.984Z,6.42
2019-03-15T00:05:01.600Z,6.51
2019-03-15T00:06:07.253Z,6.46
2019-03-15T00:07:12.841Z,6.44
2019-03-15T00:08:18.463Z,6.46
2019-03-15T00:09:24.096Z,6.62
2019-03-15T00:10:29.678Z,6.54
2019-03-15T00:11:35.288Z,6.51
2019-03-15T00:12:40.934Z,6.53
2019-03-15T00:13:46.500Z,6.57
2019-03-15T00:14:52.119Z,6.70
2019-03-15T00:15:57.703Z,6.64
2019-03-15T00:17:05.091Z,6.65
2019-03-15T00:18:10.694Z,6.63
2019-03-15T00:19:16.352Z,6.57
2019-03-15T00:20:21.995Z,6.68
2019-03-15T00:21:27.616Z,6.65
2019-03-15T00:22:33.324Z,6.73
2019-03-15T00:23:38.899Z,6.67
2019-03-15T00:24:44.826Z,6.65
2019-03-15T00:25:50.140Z,6.75
2019-03-15T00:26:55.745Z,6.80
2019-03-15T00:28:01.377Z,6.76
2019-03-15T00:29:06.995Z,6.60
2019-03-15T00:30:12.292Z,6.50
2019-03-15T00:31:17.963Z,6.60
2019-03-15T00:32:23.211Z,6.59
2019-03-15T00:33:30.595Z,6.45
2019-03-15T00:34:36.282Z,6.43
2019-03-15T00:35:41.875Z,6.53
2019-03-15T00:36:47.469Z,6.57
2019-03-15T00:37:53.075Z,6.64
2019-03-15T00:38:58.713Z,6.60
2019-03-15T00:40:03.735Z,6.60
2019-03-15T00:41:08.951Z,6.73
2019-03-15T00:42:14.969Z,6.70
2019-03-15T00:43:20.558Z,6.67
2019-03-15T00:44:26.155Z,6.58
2019-03-15T00:45:31.354Z,6.53
2019-03-15T00:46:36.950Z,6.51
2019-03-15T00:47:42.570Z,6.60
2019-03-15T00:48:48.203Z,6.57
2019-03-15T00:49:53.809Z,6.61
2019-03-15T00:50:59.357Z,6.82
2019-03-15T00:52:04.635Z,6.79
2019-03-15T00:53:10.226Z,6.83
2019-03-15T00:54:15.815Z,6.87
2019-03-15T00:55:21.477Z,6.84
2019-03-15T00:56:30.064Z,6.86
2019-03-15T00:57:35.278Z,6.80
2019-03-15T00:58:40.991Z,6.83
2019-03-15T00:59:46.591Z,6.80
2019-03-15T01:00:52.184Z,6.80
2019-03-15T01:01:57.791Z,6.79
2019-03-15T01:03:03.355Z,6.79
2019-03-15T01:04:09.580Z,6.70
2019-03-15T01:05:14.348Z,6.59
2019-03-15T01:06:19.922Z,6.54
2019-03-15T01:07:25.502Z,6.56
2019-03-15T01:08:31.077Z,6.71
2019-03-15T01:09:36.678Z,6.88
2019-03-15T01:10:42.264Z,7.03
2019-03-15T01:11:47.841Z,7.01
2019-03-15T01:12:53.464Z,6.92
2019-03-15T01:13:59.036Z,6.78
2019-03-15T01:15:04.014Z,6.89
2019-03-15T01:16:09.679Z,6.91
2019-03-15T01:17:15.265Z,6.89
2019-03-15T01:18:20.835Z,7.03
2019-03-15T01:19:26.411Z,7.02
2019-03-15T01:20:32.003Z,6.90
2019-03-15T01:21:37.589Z,6.93
2019-03-15T01:22:43.266Z,6.90
2019-03-15T01:23:48.825Z,6.94
2019-03-15T01:24:54.449Z,6.92
2019-03-15T01:26:00.046Z,6.93
2019-03-15T01:27:05.294Z,7.04
2019-03-15T01:28:10.916Z,6.93
2019-03-15T01:29:16.556Z,6.99
2019-03-15T01:30:22.175Z,6.98
2019-03-15T01:31:27.826Z,7.00
2019-03-15T01:32:33.408Z,6.98
2019-03-15T01:33:42.616Z,7.01
2019-03-15T01:34:48.215Z,7.05
2019-03-15T01:35:53.792Z,7.04
2019-03-15T01:36:59.380Z,7.15
2019-03-15T01:38:05.141Z,7.01
2019-03-15T01:39:10.606Z,6.95
2019-03-15T01:40:16.266Z,7.08
2019-03-15T01:41:21.858Z,7.11
2019-03-15T01:42:27.409Z,7.08
2019-03-15T01:43:33.009Z,6.88
2019-03-15T01:44:38.578Z,6.74
2019-03-15T01:45:44.217Z,6.84
2019-03-15T01:46:49.811Z,6.88
2019-03-15T01:47:55.425Z,6.90
2019-03-15T01:49:01.041Z,6.96
2019-03-15T01:50:05.965Z,7.01
2019-03-15T01:51:11.592Z,7.08
2019-03-15T01:52:17.241Z,7.04
2019-03-15T01:53:23.518Z,7.00
2019-03-15T01:54:28.432Z,6.84
2019-03-15T01:55:34.036Z,6.86
2019-03-15T01:56:39.632Z,7.00
2019-03-15T01:57:45.279Z,6.97
2019-03-15T01:58:50.883Z,6.94
2019-03-15T01:59:56.452Z,7.04
2019-03-15T02:01:02.057Z,7.07
2019-03-15T02:02:07.643Z,7.02
2019-03-15T02:03:13.651Z,7.05
2019-03-15T02:04:19.705Z,6.98
2019-03-15T02:05:25.307Z,6.83
2019-03-15T02:06:30.518Z,6.93
2019-03-15T02:07:35.721Z,6.97
2019-03-15T02:08:41.281Z,7.02
2019-03-15T02:09:46.878Z,6.91
2019-03-15T02:10:52.498Z,6.89
2019-03-15T02:11:58.093Z,6.99
2019-03-15T02:13:03.699Z,6.83
2019-03-15T02:14:09.259Z,6.96
2019-03-15T02:15:14.949Z,7.00
2019-03-15T02:16:20.562Z,7.07
2019-03-15T02:17:26.661Z,6.98
2019-03-15T02:18:31.787Z,6.97
2019-03-15T02:19:37.358Z,7.00
2019-03-15T02:20:42.996Z,6.87
2019-03-15T02:21:48.616Z,6.86
2019-03-15T02:22:54.195Z,6.83
2019-03-15T02:23:59.792Z,6.99
2019-03-15T02:25:04.729Z,6.96
2019-03-15T02:26:10.305Z,6.97
2019-03-15T02:27:15.860Z,7.00
2019-03-15T02:28:21.467Z,7.01
2019-03-15T02:29:27.005Z,7.01
2019-03-15T02:30:32.241Z,6.92
2019-03-15T02:31:37.822Z,6.83
2019-03-15T02:32:43.434Z,6.94
2019-03-15T02:33:49.024Z,6.99
2019-03-15T02:34:54.583Z,7.01
2019-03-15T02:36:00.221Z,7.09
2019-03-15T02:37:06.876Z,7.05
2019-03-15T02:38:11.081Z,6.87
2019-03-15T02:39:16.683Z,6.91
2019-03-15T02:40:22.337Z,7.01
2019-03-15T02:41:27.991Z,7.07
2019-03-15T02:42:33.607Z,7.07
2019-03-15T02:43:39.218Z,7.03
2019-03-15T02:44:44.830Z,7.00
2019-03-15T02:45:50.460Z,6.88
2019-03-15T02:46:56.043Z,7.05
2019-03-15T02:48:01.615Z,7.02
2019-03-15T02:49:08.242Z,7.09
2019-03-15T02:50:12.918Z,7.14
2019-03-15T02:51:18.510Z,7.11
2019-03-15T02:52:25.030Z,7.05
2019-03-15T02:53:30.677Z,7.02
2019-03-15T02:54:36.257Z,7.01
2019-03-15T02:55:41.841Z,7.11
2019-03-15T02:56:47.528Z,7.04
2019-03-15T02:57:53.139Z,7.02
2019-03-15T02:58:58.757Z,7.08
2019-03-15T03:00:03.660Z,7.08
2019-03-15T03:01:09.258Z,7.15
2019-03-15T03:02:14.833Z,7.14
2019-03-15T03:03:20.815Z,7.13
2019-03-15T03:04:26.117Z,7.13
2019-03-15T03:05:31.687Z,7.17
2019-03-15T03:06:38.233Z,7.07
2019-03-15T03:07:43.796Z,6.93
2019-03-15T03:08:49.366Z,6.94
2019-03-15T03:09:54.961Z,7.07
2019-03-15T03:11:00.559Z,7.13
2019-03-15T03:12:06.246Z,6.95
2019-03-15T03:13:12.205Z,6.99
2019-03-15T03:14:17.857Z,6.99
2019-03-15T03:15:24.510Z,6.95
2019-03-15T03:16:29.085Z,6.93
2019-03-15T03:17:34.656Z,7.09
2019-03-15T03:18:40.263Z,7.03
2019-03-15T03:19:45.833Z,6.98
2019-03-15T03:20:51.439Z,6.86
2019-03-15T03:21:57.047Z,6.83
2019-03-15T03:23:04.028Z,6.71
2019-03-15T03:24:08.364Z,6.73
2019-03-15T03:25:13.920Z,6.61
2019-03-15T03:26:19.584Z,6.52
2019-03-15T03:27:25.166Z,6.58
2019-03-15T03:28:30.728Z,6.62
2019-03-15T03:29:36.301Z,6.52
2019-03-15T03:30:41.925Z,6.53
2019-03-15T03:31:47.581Z,6.41
2019-03-15T03:32:53.149Z,6.50
2019-03-15T03:33:58.759Z,6.60
2019-03-15T03:35:03.746Z,6.62
2019-03-15T03:36:09.362Z,6.60
2019-03-15T03:37:14.960Z,6.61
2019-03-15T03:38:20.522Z,6.59
2019-03-15T03:39:27.159Z,6.46
2019-03-15T03:40:32.717Z,6.51
2019-03-15T03:41:37.993Z,6.53
2019-03-15T03:42:43.589Z,6.62
2019-03-15T03:43:49.229Z,6.62
2019-03-15T03:44:54.933Z,6.71
2019-03-15T03:46:00.544Z,6.62
2019-03-15T03:47:06.217Z,6.61
2019-03-15T03:48:11.822Z,6.64
2019-03-15T03:49:17.438Z,6.62
2019-03-15T03:50:23.032Z,6.67
2019-03-15T03:51:28.657Z,6.68
2019-03-15T03:52:34.274Z,6.53
2019-03-15T03:53:40.061Z,6.51
2019-03-15T03:54:45.635Z,6.52
2019-03-15T03:55:51.606Z,6.54
2019-03-15T03:56:55.804Z,6.60
2019-03-15T03:58:00.668Z,6.55
2019-03-15T03:59:05.999Z,6.55
2019-03-15T04:00:12.586Z,6.61
2019-03-15T04:01:17.523Z,6.40
2019-03-15T04:02:23.550Z,6.42
2019-03-15T04:03:29.164Z,6.41
2019-03-15T04:04:34.403Z,6.46
2019-03-15T04:05:40.009Z,6.48
2019-03-15T04:06:45.294Z,6.52
2019-03-15T04:07:54.295Z,6.57
2019-03-15T04:08:59.859Z,6.52
2019-03-15T04:10:05.788Z,6.49
2019-03-15T04:11:11.353Z,6.60
2019-03-15T04:12:17.143Z,6.71
2019-03-15T04:13:23.877Z,6.61
2019-03-15T04:14:29.524Z,6.52
2019-03-15T04:15:35.844Z,6.51
2019-03-15T04:16:41.502Z,6.54
2019-03-15T04:17:47.208Z,6.52
2019-03-15T04:18:52.752Z,6.52
2019-03-15T04:19:58.348Z,6.45
2019-03-15T04:21:03.527Z,6.41
2019-03-15T04:22:09.144Z,6.54
2019-03-15T04:23:14.773Z,6.54
2019-03-15T04:24:20.331Z,6.57
2019-03-15T04:25:25.956Z,6.55
2019-03-15T04:26:31.562Z,6.60
2019-03-15T04:27:37.255Z,6.62
2019-03-15T04:28:42.898Z,6.59
2019-03-15T04:29:48.514Z,6.57
2019-03-15T04:30:54.139Z,6.58
2019-03-15T04:31:59.910Z,6.69
2019-03-15T04:33:05.538Z,6.67
2019-03-15T04:34:11.173Z,6.66
2019-03-15T04:35:16.756Z,6.66
2019-03-15T04:36:22.352Z,6.67
2019-03-15T04:37:28.013Z,6.74
2019-03-15T04:38:33.611Z,6.59
2019-03-15T04:39:39.216Z,6.55
2019-03-15T04:40:44.885Z,6.72
2019-03-15T04:41:50.478Z,6.72
2019-03-15T04:42:56.159Z,6.70
2019-03-15T04:44:01.750Z,6.76
2019-03-15T04:45:06.635Z,6.71
2019-03-15T04:46:12.195Z,6.75
2019-03-15T04:47:17.808Z,6.66
2019-03-15T04:48:23.382Z,6.56
2019-03-15T04:49:28.933Z,6.53
2019-03-15T04:50:34.573Z,6.59
2019-03-15T04:51:40.167Z,6.61
2019-03-15T04:52:46.848Z,6.56
2019-03-15T04:53:52.520Z,6.64
2019-03-15T04:54:58.143Z,6.56
2019-03-15T04:56:03.748Z,6.59
2019-03-15T04:57:09.390Z,6.56
2019-03-15T04:58:14.970Z,6.62
2019-03-15T04:59:23.778Z,6.73
2019-03-15T05:00:26.183Z,6.71
2019-03-15T05:01:31.760Z,6.58
2019-03-15T05:02:37.359Z,6.53
2019-03-15T05:03:43.001Z,6.59
2019-03-15T05:04:48.584Z,6.60
2019-03-15T05:06:03.036Z,6.60
2019-03-15T05:06:59.902Z,6.61
2019-03-15T05:08:05.540Z,6.48
2019-03-15T05:09:11.125Z,6.49
2019-03-15T05:10:16.677Z,6.49
2019-03-15T05:11:23.951Z,6.52
2019-03-15T05:12:29.608Z,6.48
2019-03-15T05:13:34.874Z,6.50
2019-03-15T05:14:40.512Z,6.63
2019-03-15T05:15:46.107Z,6.52
2019-03-15T05:16:51.701Z,6.49
2019-03-15T05:17:57.298Z,6.51
2019-03-15T05:19:02.892Z,6.54
2019-03-15T05:20:07.779Z,6.53
2019-03-15T05:21:13.437Z,6.47
2019-03-15T05:22:19.075Z,6.42
2019-03-15T05:23:24.707Z,6.54
2019-03-15T05:24:30.313Z,6.62
2019-03-15T05:25:35.885Z,6.50
2019-03-15T05:26:41.451Z,6.48
2019-03-15T05:27:47.072Z,6.37
2019-03-15T05:28:52.359Z,6.35
2019-03-15T05:29:57.974Z,6.33
2019-03-15T05:31:03.219Z,6.19
2019-03-15T05:32:08.811Z,6.13
2019-03-15T05:33:14.472Z,6.05
2019-03-15T05:34:20.072Z,6.09
2019-03-15T05:35:25.288Z,6.17
2019-03-15T05:36:30.859Z,6.16
2019-03-15T05:37:36.722Z,6.23
2019-03-15T05:38:42.336Z,6.19
2019-03-15T05:39:47.900Z,6.17
2019-03-15T05:40:52.809Z,6.16
2019-03-15T05:41:58.391Z,6.11
2019-03-15T05:43:04.016Z,6.13
2019-03-15T05:44:09.590Z,6.28
2019-03-15T05:45:15.432Z,6.03
2019-03-15T05:46:21.868Z,6.16
2019-03-15T05:47:27.530Z,6.13
2019-03-15T05:48:33.156Z,6.21
2019-03-15T05:49:38.770Z,6.34
2019-03-15T05:50:44.330Z,6.29
2019-03-15T05:51:49.916Z,6.31
2019-03-15T05:52:55.537Z,6.40
2019-03-15T05:54:01.115Z,6.33
2019-03-15T05:55:09.178Z,6.25
2019-03-15T05:56:14.863Z,6.22
2019-03-15T05:57:20.404Z,6.22
2019-03-15T05:58:26.003Z,6.21
2019-03-15T05:59:31.607Z,6.26
2019-03-15T06:00:37.232Z,6.26
2019-03-15T06:01:42.840Z,6.26
2019-03-15T06:02:48.058Z,6.37
2019-03-15T06:03:53.706Z,6.31
2019-03-15T06:04:59.258Z,6.41
2019-03-15T06:06:04.556Z,6.37
2019-03-15T06:07:10.150Z,6.49
2019-03-15T06:08:15.772Z,6.46
2019-03-15T06:09:21.360Z,6.48
2019-03-15T06:10:26.948Z,6.52
2019-03-15T06:11:32.610Z,6.43
2019-03-15T06:12:37.832Z,6.48
2019-03-15T06:13:43.493Z,6.57
2019-03-15T06:14:49.151Z,6.63
2019-03-15T06:15:54.804Z,6.61
2019-03-15T06:17:00.494Z,6.71
2019-03-15T06:18:06.875Z,6.68
2019-03-15T06:19:11.893Z,6.77
2019-03-15T06:20:17.156Z,6.76
2019-03-15T06:21:22.716Z,6.83
2019-03-15T06:22:28.297Z,6.81
2019-03-15T06:23:33.907Z,6.86
2019-03-15T06:24:39.568Z,6.90
2019-03-15T06:25:45.188Z,6.93
2019-03-15T06:26:50.787Z,6.96
2019-03-15T06:27:56.392Z,6.92
2019-03-15T06:29:02.029Z,6.94
2019-03-15T06:30:14.772Z,6.99
2019-03-15T06:31:20.429Z,7.06
2019-03-15T06:32:25.998Z,7.04
2019-03-15T06:33:34.857Z,7.11
2019-03-15T06:34:40.465Z,7.17
2019-03-15T06:35:46.130Z,7.18
2019-03-15T06:36:51.704Z,7.17
2019-03-15T06:38:01.066Z,7.29
2019-03-15T06:39:06.076Z,7.27
2019-03-15T06:40:13.510Z,7.31
2019-03-15T06:41:17.072Z,7.32
2019-03-15T06:42:22.690Z,7.40
2019-03-15T06:43:28.332Z,7.49
2019-03-15T06:44:37.239Z,7.56
2019-03-15T06:45:41.848Z,7.58
2019-03-15T06:46:45.218Z,7.76
2019-03-15T06:47:50.883Z,7.77
2019-03-15T06:48:56.567Z,7.71
2019-03-15T06:50:02.159Z,7.73
2019-03-15T06:51:09.404Z,7.78
2019-03-15T06:52:14.560Z,7.79
2019-03-15T06:53:20.172Z,7.81
2019-03-15T06:54:25.787Z,7.76
2019-03-15T06:55:31.344Z,7.78
2019-03-15T06:56:36.947Z,7.93
2019-03-15T06:57:42.582Z,7.94
2019-03-15T06:58:48.190Z,7.92
2019-03-15T06:59:53.813Z,7.95
2019-03-15T07:00:59.412Z,7.94
2019-03-15T07:02:04.998Z,7.91
2019-03-15T07:03:10.629Z,7.79
2019-03-15T07:04:16.242Z,7.81
2019-03-15T07:05:21.825Z,7.79
2019-03-15T07:06:27.451Z,7.88
2019-03-15T07:07:33.062Z,7.72
2019-03-15T07:08:45.152Z,7.68
2019-03-15T07:09:50.783Z,7.76
2019-03-15T07:10:56.387Z,7.77
2019-03-15T07:12:09.371Z,7.58
2019-03-15T07:13:07.663Z,7.60
2019-03-15T07:14:13.255Z,7.56
2019-03-15T07:15:18.854Z,7.77
2019-03-15T07:16:24.509Z,7.90
2019-03-15T07:17:30.093Z,7.72
2019-03-15T07:18:35.778Z,7.61
2019-03-15T07:19:41.388Z,7.64
2019-03-15T07:20:47.053Z,7.62
2019-03-15T07:21:52.684Z,7.67
2019-03-15T07:22:58.396Z,7.84
2019-03-15T07:24:04.067Z,7.88
2019-03-15T07:25:09.168Z,7.94
2019-03-15T07:26:14.757Z,7.91
2019-03-15T07:27:20.357Z,7.74
2019-03-15T07:28:25.953Z,7.81
2019-03-15T07:29:31.579Z,7.69
2019-03-15T07:30:37.268Z,7.71
2019-03-15T07:31:42.965Z,7.69
2019-03-15T07:32:47.870Z,7.72
2019-03-15T07:33:53.464Z,7.73
2019-03-15T07:35:03.010Z,7.76
2019-03-15T07:36:08.593Z,7.83
2019-03-15T07:37:14.193Z,7.85
2019-03-15T07:38:19.814Z,7.86
2019-03-15T07:39:26.692Z,7.82
2019-03-15T07:40:31.086Z,7.88
2019-03-15T07:41:36.350Z,7.83
2019-03-15T07:42:41.970Z,7.81
2019-03-15T07:43:47.556Z,7.92
2019-03-15T07:44:53.183Z,7.82
2019-03-15T07:45:58.813Z,7.89
2019-03-15T07:47:05.390Z,7.77
2019-03-15T07:48:21.836Z,7.79
2019-03-15T07:49:16.732Z,7.77
2019-03-15T07:50:22.314Z,7.82
2019-03-15T07:51:27.200Z,7.76
2019-03-15T07:52:32.792Z,7.75
2019-03-15T07:53:38.374Z,7.75
2019-03-15T07:54:43.996Z,7.73
2019-03-15T07:55:49.632Z,7.85
2019-03-15T07:56:55.228Z,7.86
2019-03-15T07:58:00.793Z,7.95
2019-03-15T07:59:06.385Z,7.77
2019-03-15T08:00:13.138Z,7.92
2019-03-15T08:01:18.689Z,7.83
2019-03-15T08:02:24.255Z,7.84
2019-03-15T08:03:29.837Z,7.82
2019-03-15T08:04:36.070Z,7.81
2019-03-15T08:05:41.181Z,7.88
2019-03-15T08:06:46.827Z,7.82
2019-03-15T08:07:53.082Z,7.83
2019-03-15T08:08:58.108Z,7.86
2019-03-15T08:10:03.011Z,7.93
2019-03-15T08:11:07.943Z,7.85
2019-03-15T08:12:13.587Z,7.85
2019-03-15T08:13:19.225Z,7.77
2019-03-15T08:14:24.895Z,7.83
2019-03-15T08:15:30.517Z,7.87
2019-03-15T08:16:36.152Z,7.95
2019-03-15T08:17:41.427Z,7.91
2019-03-15T08:18:47.053Z,8.02
2019-03-15T08:19:52.678Z,7.87
2019-03-15T08:20:58.305Z,7.84
2019-03-15T08:22:03.546Z,7.91
2019-03-15T08:23:09.209Z,7.97
2019-03-15T08:24:14.838Z,8.11
2019-03-15T08:25:20.451Z,8.02
2019-03-15T08:26:26.030Z,8.05
2019-03-15T08:27:31.651Z,8.20
2019-03-15T08:28:37.310Z,8.18
2019-03-15T08:29:43.929Z,8.18
2019-03-15T08:30:49.588Z,8.19
2019-03-15T08:31:55.227Z,8.24
2019-03-15T08:33:10.028Z,8.35
2019-03-15T08:34:06.485Z,8.34
2019-03-15T08:35:11.395Z,8.32
2019-03-15T08:36:20.134Z,8.35
2019-03-15T08:37:22.615Z,8.32
2019-03-15T08:38:28.195Z,8.37
2019-03-15T08:39:33.802Z,8.39
2019-03-15T08:40:39.514Z,8.54
2019-03-15T08:41:44.839Z,8.51
2019-03-15T08:42:50.486Z,8.50
2019-03-15T08:43:56.057Z,8.48
2019-03-15T08:45:01.725Z,8.50
2019-03-15T08:46:07.177Z,8.45
2019-03-15T08:47:12.835Z,8.50
2019-03-15T08:48:18.488Z,8.49
2019-03-15T08:49:24.099Z,8.48
2019-03-15T08:50:29.825Z,8.58
2019-03-15T08:51:35.377Z,8.60
2019-03-15T08:52:42.155Z,8.71
2019-03-15T08:53:46.188Z,8.69
2019-03-15T08:55:04.207Z,8.63
2019-03-15T08:55:57.490Z,8.61
2019-03-15T08:57:03.208Z,8.56
2019-03-15T08:58:14.376Z,8.66
2019-03-15T08:59:14.363Z,8.70
2019-03-15T09:00:19.275Z,8.83
2019-03-15T09:01:24.856Z,8.90
2019-03-15T09:02:30.642Z,8.88
2019-03-15T09:03:36.275Z,8.99
2019-03-15T09:04:41.892Z,8.98
2019-03-15T09:05:47.562Z,9.00
2019-03-15T09:06:53.182Z,8.94
2019-03-15T09:07:58.797Z,8.96
2019-03-15T09:09:03.435Z,9.16
2019-03-15T09:10:21.938Z,9.21
2019-03-15T09:11:14.302Z,9.28
2019-03-15T09:12:19.918Z,9.18
2019-03-15T09:13:25.552Z,9.19
2019-03-15T09:14:31.213Z,9.05
2019-03-15T09:15:36.836Z,9.04
2019-03-15T09:16:42.441Z,9.01
2019-03-15T09:17:48.087Z,9.02
2019-03-15T09:18:55.458Z,9.08
2019-03-15T09:19:59.397Z,9.05
2019-03-15T09:21:05.061Z,9.05
2019-03-15T09:22:10.654Z,9.08
2019-03-15T09:23:16.365Z,9.24
2019-03-15T09:24:21.956Z,9.34
2019-03-15T09:25:27.263Z,9.33
2019-03-15T09:26:32.889Z,9.24
2019-03-15T09:27:38.460Z,9.22
2019-03-15T09:28:44.076Z,9.38
2019-03-15T09:29:49.731Z,9.44
2019-03-15T09:30:55.405Z,9.45
2019-03-15T09:32:06.341Z,9.47
2019-03-15T09:33:06.874Z,9.41
2019-03-15T09:34:12.529Z,9.39
2019-03-15T09:35:18.194Z,9.45
2019-03-15T09:36:23.506Z,9.56
2019-03-15T09:37:29.208Z,9.51
2019-03-15T09:38:34.779Z,9.51
2019-03-15T09:39:40.339Z,9.65
2019-03-15T09:40:46.105Z,9.64
2019-03-15T09:41:51.848Z,9.65
2019-03-15T09:42:59.882Z,9.46
2019-03-15T09:44:02.664Z,9.39
2019-03-15T09:45:13.723Z,9.55
2019-03-15T09:46:19.340Z,9.52
2019-03-15T09:47:25.508Z,9.42
2019-03-15T09:48:31.066Z,9.33
2019-03-15T09:49:36.697Z,9.45
2019-03-15T09:50:51.259Z,9.61
2019-03-15T09:51:47.959Z,9.67
2019-03-15T09:52:53.575Z,9.78
2019-03-15T09:53:59.230Z,9.82
2019-03-15T09:55:04.175Z,9.94
2019-03-15T09:56:09.824Z,9.98
2019-03-15T09:57:15.423Z,9.91
2019-03-15T09:58:20.998Z,9.93
2019-03-15T09:59:26.666Z,9.78
2019-03-15T10:00:32.276Z,9.84
2019-03-15T10:01:38.624Z,9.79
2019-03-15T10:02:43.792Z,9.79
2019-03-15T10:03:49.392Z,9.69
2019-03-15T10:04:55.061Z,9.72
2019-03-15T10:06:13.990Z,9.63
2019-03-15T10:07:06.510Z,9.59
2019-03-15T10:08:12.147Z,9.70
2019-03-15T10:09:17.826Z,9.59
2019-03-15T10:10:23.440Z,9.54
2019-03-15T10:11:29.151Z,9.55
2019-03-15T10:12:34.787Z,9.50
2019-03-15T10:13:40.404Z,9.32
2019-03-15T10:14:46.055Z,9.31
2019-03-15T10:15:55.413Z,9.26
2019-03-15T10:16:57.810Z,9.20
2019-03-15T10:18:03.552Z,9.24
2019-03-15T10:19:09.213Z,9.08
2019-03-15T10:20:14.109Z,9.14
2019-03-15T10:21:19.723Z,9.19
2019-03-15T10:22:25.310Z,9.15
2019-03-15T10:23:30.918Z,9.03
2019-03-15T10:24:36.502Z,8.92
2019-03-15T10:25:47.044Z,8.92
2019-03-15T10:26:47.855Z,8.93
2019-03-15T10:27:53.486Z,9.03
2019-03-15T10:28:59.121Z,9.04
2019-03-15T10:30:04.871Z,8.90
2019-03-15T10:31:10.294Z,8.92
2019-03-15T10:32:15.944Z,8.84
2019-03-15T10:33:21.586Z,8.93
2019-03-15T10:34:27.187Z,8.93
2019-03-15T10:35:32.825Z,9.07
2019-03-15T10:36:38.593Z,9.17
2019-03-15T10:37:44.099Z,9.14
2019-03-15T10:38:49.782Z,9.10
2019-03-15T10:39:55.383Z,9.07
2019-03-15T10:41:01.394Z,8.98
2019-03-15T10:42:06.702Z,9.06
2019-03-15T10:43:12.300Z,9.19
2019-03-15T10:44:17.891Z,9.20
2019-03-15T10:45:23.671Z,9.21
2019-03-15T10:46:29.409Z,9.08
2019-03-15T10:47:35.330Z,9.08
2019-03-15T10:48:41.932Z,9.09
2019-03-15T10:49:47.519Z,9.04
2019-03-15T10:50:53.140Z,9.09
2019-03-15T10:51:58.776Z,9.13
2019-03-15T10:53:04.513Z,9.23
2019-03-15T10:54:10.157Z,9.15
2019-03-15T10:55:15.468Z,8.97
2019-03-15T10:56:20.763Z,8.99
2019-03-15T10:57:26.399Z,9.09
2019-03-15T10:58:32.019Z,9.03
2019-03-15T10:59:37.699Z,8.93
2019-03-15T11:00:43.253Z,9.00
2019-03-15T11:01:48.857Z,8.94
2019-03-15T11:02:54.454Z,9.06
2019-03-15T11:04:00.047Z,9.14
2019-03-15T11:05:04.783Z,9.23
2019-03-15T11:06:10.479Z,9.11
2019-03-15T11:07:15.871Z,9.06
2019-03-15T11:08:24.105Z,9.14
2019-03-15T11:09:27.045Z,9.15
2019-03-15T11:10:32.666Z,9.13
2019-03-15T11:11:38.309Z,9.04
2019-03-15T11:12:43.970Z,8.97
2019-03-15T11:13:49.761Z,8.98
2019-03-15T11:14:55.435Z,8.93
2019-03-15T11:16:00.701Z,9.07
2019-03-15T11:17:06.313Z,9.02
2019-03-15T11:18:11.997Z,8.93
2019-03-15T11:19:17.645Z,8.92
2019-03-15T11:20:23.261Z,8.93
2019-03-15T11:21:28.890Z,8.92
2019-03-15T11:22:34.509Z,8.95
2019-03-15T11:23:40.128Z,8.92
2019-03-15T11:24:45.761Z,8.86
2019-03-15T11:25:51.390Z,9.02
2019-03-15T11:26:57.031Z,8.89
2019-03-15T11:28:02.629Z,8.99
2019-03-15T11:29:08.293Z,8.97
2019-03-15T11:30:13.199Z,9.06
2019-03-15T11:31:18.433Z,9.14
2019-03-15T11:32:24.069Z,9.23
2019-03-15T11:33:29.651Z,9.23
2019-03-15T11:34:35.239Z,9.16
2019-03-15T11:35:40.838Z,9.26
2019-03-15T11:36:57.908Z,9.23
2019-03-15T11:37:52.146Z,9.20
2019-03-15T11:38:57.725Z,9.26
2019-03-15T11:40:02.961Z,9.30
2019-03-15T11:41:08.616Z,9.22
2019-03-15T11:42:15.078Z,9.17
2019-03-15T11:43:19.828Z,9.14
2019-03-15T11:44:25.399Z,9.06
2019-03-15T11:45:30.976Z,9.03
2019-03-15T11:46:36.638Z,9.15
2019-03-15T11:48:01.230Z,9.17
2019-03-15T11:48:48.105Z,9.20
2019-03-15T11:49:53.727Z,9.14
2019-03-15T11:50:59.015Z,9.01
2019-03-15T11:52:03.970Z,9.11
2019-03-15T11:53:09.601Z,9.18
2019-03-15T11:54:15.327Z,9.14
2019-03-15T11:55:20.857Z,9.17
2019-03-15T11:56:27.386Z,9.07
2019-03-15T11:57:32.162Z,9.09
2019-03-15T11:58:37.844Z,9.08
2019-03-15T11:59:43.452Z,9.09
2019-03-15T12:00:49.087Z,9.20
2019-03-15T12:02:04.041Z,9.24
2019-03-15T12:03:00.355Z,9.13
2019-03-15T12:04:05.978Z,8.98
2019-03-15T12:05:10.953Z,9.05
2019-03-15T12:06:16.592Z,9.12
2019-03-15T12:07:22.246Z,9.15
2019-03-15T12:08:27.892Z,9.12
2019-03-15T12:09:33.520Z,9.05
2019-03-15T12:10:39.124Z,9.08
2019-03-15T12:11:44.764Z,9.17
2019-03-15T12:12:50.384Z,9.20
2019-03-15T12:13:55.626Z,9.12
2019-03-15T12:15:01.229Z,9.09
2019-03-15T12:16:06.836Z,9.20
2019-03-15T12:17:12.424Z,9.16
2019-03-15T12:18:18.200Z,9.16
2019-03-15T12:19:23.793Z,9.25
2019-03-15T12:20:29.380Z,9.26
2019-03-15T12:21:34.983Z,9.17
2019-03-15T12:22:40.284Z,9.27
2019-03-15T12:23:45.887Z,9.25
2019-03-15T12:24:51.479Z,9.21
2019-03-15T12:25:57.146Z,9.14
2019-03-15T12:27:02.756Z,9.10
2019-03-15T12:28:08.439Z,8.99
2019-03-15T12:29:14.043Z,9.12
2019-03-15T12:30:19.661Z,9.16
2019-03-15T12:31:25.275Z,9.15
2019-03-15T12:32:30.868Z,9.18
2019-03-15T12:33:36.588Z,9.19
2019-03-15T12:34:42.242Z,9.10
2019-03-15T12:35:47.887Z,9.00
2019-03-15T12:36:53.619Z,9.13
2019-03-15T12:37:59.288Z,9.25
2019-03-15T12:39:03.973Z,9.20
2019-03-15T12:40:09.010Z,9.27
2019-03-15T12:41:14.639Z,9.29
2019-03-15T12:42:20.226Z,9.12
2019-03-15T12:43:25.844Z,9.08
2019-03-15T12:44:31.417Z,9.02
2019-03-15T12:45:36.999Z,8.91
2019-03-15T12:46:42.599Z,8.95
2019-03-15T12:47:48.343Z,9.05
2019-03-15T12:48:54.076Z,8.95
2019-03-15T12:49:59.728Z,8.95
2019-03-15T12:51:05.365Z,9.02
2019-03-15T12:52:11.054Z,8.82
2019-03-15T12:53:16.700Z,8.84
2019-03-15T12:54:22.480Z,8.84
2019-03-15T12:55:28.434Z,8.96
2019-03-15T12:56:34.534Z,9.05
2019-03-15T12:57:40.490Z,9.01
2019-03-15T12:58:46.159Z,8.96
2019-03-15T12:59:51.758Z,9.06
2019-03-15T13:00:57.363Z,9.16
2019-03-15T13:02:03.003Z,9.21
2019-03-15T13:03:08.676Z,9.19
2019-03-15T13:04:14.304Z,9.15
2019-03-15T13:05:19.970Z,9.10
2019-03-15T13:06:25.554Z,9.13
2019-03-15T13:07:31.179Z,9.10
2019-03-15T13:08:36.860Z,9.08
2019-03-15T13:09:42.440Z,9.07
2019-03-15T13:10:48.067Z,9.01
2019-03-15T13:11:54.415Z,9.03
2019-03-15T13:12:59.990Z,9.06
2019-03-15T13:14:04.915Z,9.07
2019-03-15T13:15:10.402Z,9.13
2019-03-15T13:16:16.160Z,9.06
2019-03-15T13:17:21.743Z,9.05
2019-03-15T13:18:28.744Z,8.98
2019-03-15T13:19:34.452Z,8.96
2019-03-15T13:20:40.091Z,9.03
2019-03-15T13:21:45.734Z,9.11
2019-03-15T13:22:51.301Z,9.21
2019-03-15T13:23:56.968Z,9.25
2019-03-15T13:25:02.553Z,9.26
2019-03-15T13:26:08.215Z,9.28
2019-03-15T13:27:13.867Z,9.33
2019-03-15T13:28:19.491Z,9.43
2019-03-15T13:29:26.259Z,9.37
2019-03-15T13:30:31.854Z,9.36
2019-03-15T13:31:37.582Z,9.36
2019-03-15T13:32:43.194Z,9.40
2019-03-15T13:33:48.464Z,9.50
2019-03-15T13:34:54.197Z,9.41
2019-03-15T13:35:59.853Z,9.44
2019-03-15T13:37:05.458Z,9.52
2019-03-15T13:38:11.120Z,9.61
2019-03-15T13:39:16.880Z,9.52
2019-03-15T13:40:22.435Z,9.53
2019-03-15T13:41:28.027Z,9.57
2019-03-15T13:42:33.603Z,9.56
2019-03-15T13:43:39.294Z,9.56
2019-03-15T13:44:44.885Z,9.59
2019-03-15T13:45:50.442Z,9.63
2019-03-15T13:46:56.126Z,9.71
2019-03-15T13:48:01.764Z,9.78
2019-03-15T13:49:07.433Z,9.72
2019-03-15T13:50:13.247Z,9.84
2019-03-15T13:51:18.917Z,9.91
2019-03-15T13:52:24.483Z,9.97
2019-03-15T13:53:30.156Z,10.01
2019-03-15T13:54:35.772Z,10.06
2019-03-15T13:55:41.425Z,10.01
2019-03-15T13:56:48.483Z,10.06
2019-03-15T13:57:52.727Z,10.06
2019-03-15T13:58:58.365Z,10.09
2019-03-15T14:00:03.277Z,10.09
2019-03-15T14:01:08.859Z,10.11
2019-03-15T14:02:14.619Z,10.25
2019-03-15T14:03:20.258Z,10.30
2019-03-15T14:04:25.912Z,10.23
2019-03-15T14:05:31.529Z,10.25
2019-03-15T14:06:37.185Z,10.32
2019-03-15T14:07:42.841Z,10.34
2019-03-15T14:08:48.496Z,10.38
2019-03-15T14:09:54.103Z,10.43
2019-03-15T14:10:59.751Z,10.39
2019-03-15T14:12:05.410Z,10.42
2019-03-15T14:13:12.117Z,10.46
2019-03-15T14:14:16.666Z,10.51
2019-03-15T14:15:22.021Z,10.54
2019-03-15T14:16:27.636Z,10.45
2019-03-15T14:17:33.286Z,10.40
2019-03-15T14:18:38.885Z,10.49
2019-03-15T14:19:44.545Z,10.39
2019-03-15T14:20:50.245Z,10.39
2019-03-15T14:21:55.882Z,10.39
2019-03-15T14:23:01.615Z,10.41
2019-03-15T14:24:08.440Z,10.31
2019-03-15T14:25:16.089Z,10.37
2019-03-15T14:26:21.712Z,10.50
2019-03-15T14:27:37.360Z,10.33
2019-03-15T14:28:36.361Z,10.33
2019-03-15T14:29:42.044Z,10.38
2019-03-15T14:30:47.632Z,10.43
2019-03-15T14:31:53.211Z,10.49
2019-03-15T14:32:58.764Z,10.57